sensor_id;sensor_type;location;lat;lon;timestamp;P1;durP1;ratioP1;P2;durP2;ratioP2
13832;SDS011;6987;19.472;-99.276;2022-08-04T00:00:29;5.85;;;5.35;;
13832;SDS011;6987;19.472;-99.276;2022-08-04T00:03:01;7.07;;;5.68;;
13832;SDS011;6987;19.472;-99.276;2022-08-04T00:05:38;7.03;;;5.78;;
13832;SDS011;6987;19.472;-99.276;2022-08-04T00:08:10;8.40;;;6.00;;
13832;SDS011;6987;19.472;-99.276;2022-08-04T00:10:42;6.88;;;5.15;;
13832;SDS011;6987;19.472;-99.276;2022-08-04T00:13:12;5.05;;;4.65;;
13832;SDS011;6987;19.472;-99.276;2022-08-04T00:15:42;6.20;;;4.75;;
13832;SDS011;6987;19.472;-99.276;2022-08-04T00:18:13;6.80;;;5.95;;
13832;SDS011;6987;19.472;-99.276;2022-08-04T00:20:44;6.70;;;5.25;;
13832;SDS011;6987;19.472;-99.276;2022-08-04T00:23:13;6.85;;;5.50;;
13832;SDS011;6987;19.472;-99.276;2022-08-04T00:25:44;4.65;;;4.22;;
13832;SDS011;6987;19.472;-99.276;2022-08-04T00:28:13;5.90;;;4.72;;
13832;SDS011;6987;19.472;-99.276;2022-08-04T00:30:42;7.82;;;3.67;;
13832;SDS011;6987;19.472;-99.276;2022-08-04T00:33:11;4.47;;;3.60;;
13832;SDS011;6987;19.472;-99.276;2022-08-04T00:35:40;5.30;;;3.05;;
13832;SDS011;6987;19.472;-99.276;2022-08-04T00:38:11;5.85;;;3.53;;
13832;SDS011;6987;19.472;-99.276;2022-08-04T00:40:46;4.78;;;3.45;;
13832;SDS011;6987;19.472;-99.276;2022-08-04T00:43:18;7.28;;;4.07;;
13832;SDS011;6987;19.472;-99.276;2022-08-04T00:48:39;7.53;;;5.15;;
13832;SDS011;6987;19.472;-99.276;2022-08-04T00:51:14;7.00;;;5.07;;
13832;SDS011;6987;19.472;-99.276;2022-08-04T00:53:58;6.32;;;5.40;;
13832;SDS011;6987;19.472;-99.276;2022-08-04T00:56:36;5.20;;;4.65;;
13832;SDS011;6987;19.472;-99.276;2022-08-04T00:59:10;7.28;;;5.10;;
13832;SDS011;6987;19.472;-99.276;2022-08-04T01:01:45;6.18;;;4.43;;
13832;SDS011;6987;19.472;-99.276;2022-08-04T01:04:18;4.70;;;4.20;;
13832;SDS011;6987;19.472;-99.276;2022-08-04T01:06:51;6.20;;;4.25;;
13832;SDS011;6987;19.472;-99.276;2022-08-04T01:09:31;7.95;;;4.75;;
13832;SDS011;6987;19.472;-99.276;2022-08-04T01:12:13;4.70;;;4.25;;
13832;SDS011;6987;19.472;-99.276;2022-08-04T01:14:47;4.53;;;4.13;;
13832;SDS011;6987;19.472;-99.276;2022-08-04T01:17:20;4.38;;;4.03;;
13832;SDS011;6987;19.472;-99.276;2022-08-04T01:19:53;4.55;;;4.10;;
13832;SDS011;6987;19.472;-99.276;2022-08-04T01:22:39;5.85;;;3.53;;
13832;SDS011;6987;19.472;-99.276;2022-08-04T01:25:17;7.65;;;4.05;;
13832;SDS011;6987;19.472;-99.276;2022-08-04T01:28:00;4.15;;;3.50;;
13832;SDS011;6987;19.472;-99.276;2022-08-04T01:30:35;4.32;;;3.63;;
13832;SDS011;6987;19.472;-99.276;2022-08-04T01:33:07;4.00;;;3.70;;
13832;SDS011;6987;19.472;-99.276;2022-08-04T01:35:37;4.15;;;3.45;;
13832;SDS011;6987;19.472;-99.276;2022-08-04T01:38:11;4.80;;;3.92;;
13832;SDS011;6987;19.472;-99.276;2022-08-04T01:40:42;5.13;;;3.90;;
13832;SDS011;6987;19.472;-99.276;2022-08-04T01:43:12;5.28;;;4.78;;
13832;SDS011;6987;19.472;-99.276;2022-08-04T01:45:43;4.70;;;4.32;;
13832;SDS011;6987;19.472;-99.276;2022-08-04T01:48:17;6.57;;;5.22;;
13832;SDS011;6987;19.472;-99.276;2022-08-04T01:50:50;6.63;;;4.97;;
13832;SDS011;6987;19.472;-99.276;2022-08-04T01:53:20;7.18;;;5.30;;
13832;SDS011;6987;19.472;-99.276;2022-08-04T01:55:50;7.00;;;5.35;;
13832;SDS011;6987;19.472;-99.276;2022-08-04T01:58:19;9.93;;;5.43;;
13832;SDS011;6987;19.472;-99.276;2022-08-04T02:00:54;6.32;;;5.72;;
13832;SDS011;6987;19.472;-99.276;2022-08-04T02:03:24;7.55;;;5.95;;
13832;SDS011;6987;19.472;-99.276;2022-08-04T02:05:54;9.20;;;6.72;;
13832;SDS011;6987;19.472;-99.276;2022-08-04T02:08:29;6.93;;;6.28;;
13832;SDS011;6987;19.472;-99.276;2022-08-04T02:11:03;7.43;;;6.05;;
13832;SDS011;6987;19.472;-99.276;2022-08-04T02:13:33;8.75;;;6.80;;
13832;SDS011;6987;19.472;-99.276;2022-08-04T02:16:07;6.78;;;6.15;;
13832;SDS011;6987;19.472;-99.276;2022-08-04T02:18:41;13.98;;;6.38;;
13832;SDS011;6987;19.472;-99.276;2022-08-04T02:21:12;7.03;;;6.28;;
13832;SDS011;6987;19.472;-99.276;2022-08-04T02:23:42;7.70;;;6.43;;
13832;SDS011;6987;19.472;-99.276;2022-08-04T02:26:12;9.90;;;6.75;;
13832;SDS011;6987;19.472;-99.276;2022-08-04T02:28:45;7.18;;;6.45;;
13832;SDS011;6987;19.472;-99.276;2022-08-04T02:31:19;9.15;;;6.28;;
13832;SDS011;6987;19.472;-99.276;2022-08-04T02:33:55;8.45;;;6.50;;
13832;SDS011;6987;19.472;-99.276;2022-08-04T02:36:28;7.03;;;5.65;;
13832;SDS011;6987;19.472;-99.276;2022-08-04T02:38:58;9.98;;;5.95;;
13832;SDS011;6987;19.472;-99.276;2022-08-04T02:41:28;7.68;;;6.00;;
13832;SDS011;6987;19.472;-99.276;2022-08-04T02:43:58;7.40;;;5.82;;
13832;SDS011;6987;19.472;-99.276;2022-08-04T02:46:29;8.82;;;6.20;;
13832;SDS011;6987;19.472;-99.276;2022-08-04T02:49:00;6.40;;;5.50;;
13832;SDS011;6987;19.472;-99.276;2022-08-04T02:51:30;6.45;;;5.68;;
13832;SDS011;6987;19.472;-99.276;2022-08-04T02:54:01;7.72;;;5.60;;
13832;SDS011;6987;19.472;-99.276;2022-08-04T02:56:31;5.05;;;4.53;;
13832;SDS011;6987;19.472;-99.276;2022-08-04T02:59:02;5.50;;;5.00;;
13832;SDS011;6987;19.472;-99.276;2022-08-04T03:01:33;5.57;;;5.07;;
13832;SDS011;6987;19.472;-99.276;2022-08-04T03:04:07;4.90;;;4.50;;
13832;SDS011;6987;19.472;-99.276;2022-08-04T03:06:52;4.18;;;3.88;;
13832;SDS011;6987;19.472;-99.276;2022-08-04T03:12:23;5.05;;;4.13;;
13832;SDS011;6987;19.472;-99.276;2022-08-04T03:15:14;4.78;;;4.38;;
13832;SDS011;6987;19.472;-99.276;2022-08-04T03:23:36;4.35;;;3.83;;
13832;SDS011;6987;19.472;-99.276;2022-08-04T03:26:18;6.32;;;3.78;;
13832;SDS011;6987;19.472;-99.276;2022-08-04T03:29:09;4.57;;;3.72;;
13832;SDS011;6987;19.472;-99.276;2022-08-04T03:31:48;3.33;;;3.22;;
13832;SDS011;6987;19.472;-99.276;2022-08-04T03:34:36;7.53;;;4.05;;
13832;SDS011;6987;19.472;-99.276;2022-08-04T03:37:16;5.25;;;3.60;;
13832;SDS011;6987;19.472;-99.276;2022-08-04T03:42:47;3.75;;;3.40;;
13832;SDS011;6987;19.472;-99.276;2022-08-04T03:51:01;4.00;;;3.70;;
13832;SDS011;6987;19.472;-99.276;2022-08-04T03:53:56;3.20;;;3.00;;
13832;SDS011;6987;19.472;-99.276;2022-08-04T03:56:36;3.22;;;3.03;;
13832;SDS011;6987;19.472;-99.276;2022-08-04T04:02:02;7.00;;;3.83;;
13832;SDS011;6987;19.472;-99.276;2022-08-04T04:04:48;3.72;;;3.05;;
13832;SDS011;6987;19.472;-99.276;2022-08-04T04:10:22;7.45;;;3.33;;
13832;SDS011;6987;19.472;-99.276;2022-08-04T04:13:03;3.58;;;3.28;;
13832;SDS011;6987;19.472;-99.276;2022-08-04T04:15:41;6.20;;;3.65;;
13832;SDS011;6987;19.472;-99.276;2022-08-04T04:18:18;3.58;;;3.25;;
13832;SDS011;6987;19.472;-99.276;2022-08-04T04:21:03;5.10;;;3.72;;
13832;SDS011;6987;19.472;-99.276;2022-08-04T04:23:44;3.65;;;3.35;;
13832;SDS011;6987;19.472;-99.276;2022-08-04T04:29:06;3.35;;;3.05;;
13832;SDS011;6987;19.472;-99.276;2022-08-04T04:31:45;5.57;;;3.72;;
13832;SDS011;6987;19.472;-99.276;2022-08-04T04:34:22;4.18;;;3.72;;
13832;SDS011;6987;19.472;-99.276;2022-08-04T04:36:58;5.53;;;4.10;;
13832;SDS011;6987;19.472;-99.276;2022-08-04T04:39:35;4.88;;;3.33;;
13832;SDS011;6987;19.472;-99.276;2022-08-04T04:42:16;3.90;;;2.88;;
13832;SDS011;6987;19.472;-99.276;2022-08-04T04:45:04;3.72;;;3.42;;
13832;SDS011;6987;19.472;-99.276;2022-08-04T04:47:39;3.47;;;3.20;;
13832;SDS011;6987;19.472;-99.276;2022-08-04T04:50:17;3.95;;;3.63;;
13832;SDS011;6987;19.472;-99.276;2022-08-04T04:52:52;4.43;;;3.20;;
13832;SDS011;6987;19.472;-99.276;2022-08-04T04:55:25;3.63;;;3.20;;
13832;SDS011;6987;19.472;-99.276;2022-08-04T04:57:57;5.40;;;3.42;;
13832;SDS011;6987;19.472;-99.276;2022-08-04T05:00:32;3.90;;;3.58;;
13832;SDS011;6987;19.472;-99.276;2022-08-04T05:03:07;4.05;;;3.70;;
13832;SDS011;6987;19.472;-99.276;2022-08-04T05:08:38;5.30;;;3.50;;
13832;SDS011;6987;19.472;-99.276;2022-08-04T05:11:15;4.28;;;3.65;;
13832;SDS011;6987;19.472;-99.276;2022-08-04T05:13:51;3.42;;;3.13;;
13832;SDS011;6987;19.472;-99.276;2022-08-04T05:16:23;3.40;;;3.13;;
13832;SDS011;6987;19.472;-99.276;2022-08-04T05:18:56;4.50;;;4.10;;
13832;SDS011;6987;19.472;-99.276;2022-08-04T05:21:35;5.68;;;3.45;;
13832;SDS011;6987;19.472;-99.276;2022-08-04T05:24:10;4.93;;;3.90;;
13832;SDS011;6987;19.472;-99.276;2022-08-04T05:26:42;5.15;;;4.30;;
13832;SDS011;6987;19.472;-99.276;2022-08-04T05:29:17;8.93;;;3.85;;
13832;SDS011;6987;19.472;-99.276;2022-08-04T05:31:51;3.55;;;3.22;;
13832;SDS011;6987;19.472;-99.276;2022-08-04T05:34:26;5.93;;;4.30;;
13832;SDS011;6987;19.472;-99.276;2022-08-04T05:36:57;9.23;;;3.90;;
13832;SDS011;6987;19.472;-99.276;2022-08-04T05:39:31;4.05;;;3.72;;
13832;SDS011;6987;19.472;-99.276;2022-08-04T05:42:02;4.50;;;3.70;;
13832;SDS011;6987;19.472;-99.276;2022-08-04T05:44:33;3.72;;;3.40;;
13832;SDS011;6987;19.472;-99.276;2022-08-04T05:47:03;7.35;;;3.60;;
13832;SDS011;6987;19.472;-99.276;2022-08-04T05:49:33;5.25;;;4.00;;
13832;SDS011;6987;19.472;-99.276;2022-08-04T05:52:02;4.47;;;4.10;;
13832;SDS011;6987;19.472;-99.276;2022-08-04T05:54:34;8.82;;;3.78;;
13832;SDS011;6987;19.472;-99.276;2022-08-04T05:57:05;4.18;;;3.65;;
13832;SDS011;6987;19.472;-99.276;2022-08-04T05:59:35;5.20;;;3.78;;
13832;SDS011;6987;19.472;-99.276;2022-08-04T06:02:05;3.45;;;3.17;;
13832;SDS011;6987;19.472;-99.276;2022-08-04T06:04:37;3.80;;;3.50;;
13832;SDS011;6987;19.472;-99.276;2022-08-04T06:07:06;7.40;;;3.08;;
13832;SDS011;6987;19.472;-99.276;2022-08-04T06:09:37;4.07;;;3.33;;
13832;SDS011;6987;19.472;-99.276;2022-08-04T06:12:08;6.00;;;4.00;;
13832;SDS011;6987;19.472;-99.276;2022-08-04T06:14:39;4.03;;;2.90;;
13832;SDS011;6987;19.472;-99.276;2022-08-04T06:17:10;5.88;;;3.53;;
13832;SDS011;6987;19.472;-99.276;2022-08-04T06:19:41;3.38;;;3.17;;
13832;SDS011;6987;19.472;-99.276;2022-08-04T06:22:11;2.90;;;2.70;;
13832;SDS011;6987;19.472;-99.276;2022-08-04T06:24:43;4.00;;;3.70;;
13832;SDS011;6987;19.472;-99.276;2022-08-04T06:27:12;6.13;;;3.95;;
13832;SDS011;6987;19.472;-99.276;2022-08-04T06:29:42;5.45;;;3.22;;
13832;SDS011;6987;19.472;-99.276;2022-08-04T06:32:12;3.47;;;3.25;;
13832;SDS011;6987;19.472;-99.276;2022-08-04T06:34:53;3.42;;;3.22;;
13832;SDS011;6987;19.472;-99.276;2022-08-04T06:37:22;4.30;;;3.72;;
13832;SDS011;6987;19.472;-99.276;2022-08-04T06:39:54;4.40;;;3.20;;
13832;SDS011;6987;19.472;-99.276;2022-08-04T06:42:25;3.92;;;3.60;;
13832;SDS011;6987;19.472;-99.276;2022-08-04T06:44:55;5.45;;;3.50;;
13832;SDS011;6987;19.472;-99.276;2022-08-04T06:47:25;3.08;;;2.83;;
13832;SDS011;6987;19.472;-99.276;2022-08-04T06:49:55;3.15;;;2.95;;
13832;SDS011;6987;19.472;-99.276;2022-08-04T06:52:24;3.70;;;3.40;;
13832;SDS011;6987;19.472;-99.276;2022-08-04T06:54:55;3.47;;;3.28;;
13832;SDS011;6987;19.472;-99.276;2022-08-04T06:57:25;3.40;;;3.20;;
13832;SDS011;6987;19.472;-99.276;2022-08-04T06:59:56;4.13;;;3.42;;
13832;SDS011;6987;19.472;-99.276;2022-08-04T07:02:25;4.03;;;3.53;;
13832;SDS011;6987;19.472;-99.276;2022-08-04T07:04:55;3.53;;;3.10;;
13832;SDS011;6987;19.472;-99.276;2022-08-04T07:07:25;3.55;;;3.25;;
13832;SDS011;6987;19.472;-99.276;2022-08-04T07:09:55;4.55;;;3.58;;
13832;SDS011;6987;19.472;-99.276;2022-08-04T07:12:25;3.25;;;3.05;;
13832;SDS011;6987;19.472;-99.276;2022-08-04T07:14:54;4.05;;;3.65;;
13832;SDS011;6987;19.472;-99.276;2022-08-04T07:17:23;5.85;;;3.30;;
13832;SDS011;6987;19.472;-99.276;2022-08-04T07:19:53;4.63;;;3.50;;
13832;SDS011;6987;19.472;-99.276;2022-08-04T07:22:22;3.95;;;3.63;;
13832;SDS011;6987;19.472;-99.276;2022-08-04T07:24:53;3.80;;;3.25;;
13832;SDS011;6987;19.472;-99.276;2022-08-04T07:27:24;4.60;;;3.70;;
13832;SDS011;6987;19.472;-99.276;2022-08-04T07:29:53;3.60;;;3.30;;
13832;SDS011;6987;19.472;-99.276;2022-08-04T07:32:23;4.10;;;3.40;;
13832;SDS011;6987;19.472;-99.276;2022-08-04T07:34:52;4.40;;;3.38;;
13832;SDS011;6987;19.472;-99.276;2022-08-04T07:37:22;4.13;;;3.72;;
13832;SDS011;6987;19.472;-99.276;2022-08-04T07:39:52;5.47;;;3.78;;
13832;SDS011;6987;19.472;-99.276;2022-08-04T07:42:20;3.72;;;3.38;;
13832;SDS011;6987;19.472;-99.276;2022-08-04T07:44:51;5.88;;;3.58;;
13832;SDS011;6987;19.472;-99.276;2022-08-04T07:47:20;4.45;;;3.30;;
13832;SDS011;6987;19.472;-99.276;2022-08-04T07:49:49;3.85;;;3.55;;
13832;SDS011;6987;19.472;-99.276;2022-08-04T07:52:19;3.80;;;3.50;;
13832;SDS011;6987;19.472;-99.276;2022-08-04T07:54:48;3.35;;;3.05;;
13832;SDS011;6987;19.472;-99.276;2022-08-04T07:57:18;4.32;;;3.70;;
13832;SDS011;6987;19.472;-99.276;2022-08-04T07:59:47;3.95;;;3.45;;
13832;SDS011;6987;19.472;-99.276;2022-08-04T08:02:18;4.88;;;4.45;;
13832;SDS011;6987;19.472;-99.276;2022-08-04T08:04:48;3.72;;;3.50;;
13832;SDS011;6987;19.472;-99.276;2022-08-04T08:07:18;4.38;;;3.80;;
13832;SDS011;6987;19.472;-99.276;2022-08-04T08:09:47;7.35;;;3.67;;
13832;SDS011;6987;19.472;-99.276;2022-08-04T08:12:16;4.55;;;4.05;;
13832;SDS011;6987;19.472;-99.276;2022-08-04T08:14:45;4.55;;;4.05;;
13832;SDS011;6987;19.472;-99.276;2022-08-04T08:17:14;5.45;;;3.95;;
13832;SDS011;6987;19.472;-99.276;2022-08-04T08:19:47;7.65;;;3.40;;
13832;SDS011;6987;19.472;-99.276;2022-08-04T08:22:17;5.65;;;3.47;;
13832;SDS011;6987;19.472;-99.276;2022-08-04T08:24:46;3.92;;;3.58;;
13832;SDS011;6987;19.472;-99.276;2022-08-04T08:27:15;4.55;;;3.70;;
13832;SDS011;6987;19.472;-99.276;2022-08-04T08:29:44;6.53;;;3.30;;
13832;SDS011;6987;19.472;-99.276;2022-08-04T08:32:14;6.65;;;3.80;;
13832;SDS011;6987;19.472;-99.276;2022-08-04T08:34:43;5.65;;;3.80;;
13832;SDS011;6987;19.472;-99.276;2022-08-04T08:37:14;3.67;;;3.47;;
13832;SDS011;6987;19.472;-99.276;2022-08-04T08:39:48;4.00;;;3.70;;
13832;SDS011;6987;19.472;-99.276;2022-08-04T08:45:30;5.55;;;3.88;;
13832;SDS011;6987;19.472;-99.276;2022-08-04T08:48:07;4.95;;;3.65;;
13832;SDS011;6987;19.472;-99.276;2022-08-04T08:53:34;5.57;;;3.80;;
13832;SDS011;6987;19.472;-99.276;2022-08-04T08:56:15;5.18;;;4.38;;
13832;SDS011;6987;19.472;-99.276;2022-08-04T08:58:48;6.30;;;4.07;;
13832;SDS011;6987;19.472;-99.276;2022-08-04T09:01:24;5.18;;;4.43;;
13832;SDS011;6987;19.472;-99.276;2022-08-04T09:12:24;4.70;;;3.80;;
13832;SDS011;6987;19.472;-99.276;2022-08-04T09:14:59;6.13;;;4.10;;
13832;SDS011;6987;19.472;-99.276;2022-08-04T09:17:32;6.00;;;4.78;;
13832;SDS011;6987;19.472;-99.276;2022-08-04T09:20:04;4.63;;;3.88;;
13832;SDS011;6987;19.472;-99.276;2022-08-04T09:22:37;4.45;;;4.15;;
13832;SDS011;6987;19.472;-99.276;2022-08-04T09:25:07;4.85;;;4.45;;
13832;SDS011;6987;19.472;-99.276;2022-08-04T09:27:42;7.63;;;4.00;;
13832;SDS011;6987;19.472;-99.276;2022-08-04T09:30:12;8.35;;;4.13;;
13832;SDS011;6987;19.472;-99.276;2022-08-04T09:32:43;3.70;;;3.40;;
13832;SDS011;6987;19.472;-99.276;2022-08-04T09:35:20;4.32;;;3.95;;
13832;SDS011;6987;19.472;-99.276;2022-08-04T09:38:01;4.18;;;3.60;;
13832;SDS011;6987;19.472;-99.276;2022-08-04T09:40:36;4.13;;;3.72;;
13832;SDS011;6987;19.472;-99.276;2022-08-04T09:43:12;3.63;;;3.42;;
13832;SDS011;6987;19.472;-99.276;2022-08-04T09:45:47;4.18;;;3.85;;
13832;SDS011;6987;19.472;-99.276;2022-08-04T09:48:19;5.63;;;5.00;;
13832;SDS011;6987;19.472;-99.276;2022-08-04T09:50:49;5.00;;;4.53;;
13832;SDS011;6987;19.472;-99.276;2022-08-04T09:53:29;4.25;;;3.90;;
13832;SDS011;6987;19.472;-99.276;2022-08-04T09:56:07;4.32;;;3.92;;
13832;SDS011;6987;19.472;-99.276;2022-08-04T09:58:43;4.20;;;3.90;;
13832;SDS011;6987;19.472;-99.276;2022-08-04T10:01:15;4.80;;;4.40;;
13832;SDS011;6987;19.472;-99.276;2022-08-04T10:03:47;4.72;;;4.07;;
13832;SDS011;6987;19.472;-99.276;2022-08-04T10:06:31;6.82;;;4.55;;
13832;SDS011;6987;19.472;-99.276;2022-08-04T10:09:07;5.60;;;4.30;;
13832;SDS011;6987;19.472;-99.276;2022-08-04T10:11:43;7.78;;;4.20;;
13832;SDS011;6987;19.472;-99.276;2022-08-04T10:14:19;4.88;;;4.47;;
13832;SDS011;6987;19.472;-99.276;2022-08-04T10:16:56;4.80;;;3.83;;
13832;SDS011;6987;19.472;-99.276;2022-08-04T10:19:31;6.13;;;4.40;;
13832;SDS011;6987;19.472;-99.276;2022-08-04T10:22:05;5.07;;;4.32;;
13832;SDS011;6987;19.472;-99.276;2022-08-04T10:24:41;3.90;;;3.58;;
13832;SDS011;6987;19.472;-99.276;2022-08-04T10:27:18;5.93;;;4.32;;
13832;SDS011;6987;19.472;-99.276;2022-08-04T10:29:52;6.82;;;4.30;;
13832;SDS011;6987;19.472;-99.276;2022-08-04T10:32:23;5.85;;;4.45;;
13832;SDS011;6987;19.472;-99.276;2022-08-04T10:34:58;8.90;;;5.10;;
13832;SDS011;6987;19.472;-99.276;2022-08-04T10:37:31;9.57;;;5.03;;
13832;SDS011;6987;19.472;-99.276;2022-08-04T10:40:04;5.45;;;4.95;;
13832;SDS011;6987;19.472;-99.276;2022-08-04T10:42:55;10.25;;;4.88;;
13832;SDS011;6987;19.472;-99.276;2022-08-04T10:45:27;7.00;;;5.13;;
13832;SDS011;6987;19.472;-99.276;2022-08-04T10:48:04;6.80;;;4.63;;
13832;SDS011;6987;19.472;-99.276;2022-08-04T10:50:35;11.35;;;4.60;;
13832;SDS011;6987;19.472;-99.276;2022-08-04T10:53:06;9.43;;;4.55;;
13832;SDS011;6987;19.472;-99.276;2022-08-04T10:55:42;9.07;;;5.03;;
13832;SDS011;6987;19.472;-99.276;2022-08-04T10:58:14;5.22;;;4.35;;
13832;SDS011;6987;19.472;-99.276;2022-08-04T11:00:45;5.72;;;4.38;;
13832;SDS011;6987;19.472;-99.276;2022-08-04T11:03:19;9.82;;;5.50;;
13832;SDS011;6987;19.472;-99.276;2022-08-04T11:05:50;5.45;;;4.53;;
13832;SDS011;6987;19.472;-99.276;2022-08-04T11:08:21;8.68;;;4.55;;
13832;SDS011;6987;19.472;-99.276;2022-08-04T11:10:54;9.80;;;4.55;;
13832;SDS011;6987;19.472;-99.276;2022-08-04T11:13:28;7.30;;;4.63;;
13832;SDS011;6987;19.472;-99.276;2022-08-04T11:16:01;9.20;;;5.13;;
13832;SDS011;6987;19.472;-99.276;2022-08-04T11:18:34;5.40;;;4.97;;
13832;SDS011;6987;19.472;-99.276;2022-08-04T11:21:09;9.65;;;5.28;;
13832;SDS011;6987;19.472;-99.276;2022-08-04T11:23:39;7.57;;;4.88;;
13832;SDS011;6987;19.472;-99.276;2022-08-04T11:26:11;5.25;;;4.60;;
13832;SDS011;6987;19.472;-99.276;2022-08-04T11:28:50;7.07;;;4.88;;
13832;SDS011;6987;19.472;-99.276;2022-08-04T11:31:24;6.35;;;4.90;;
13832;SDS011;6987;19.472;-99.276;2022-08-04T11:33:55;9.75;;;5.07;;
13832;SDS011;6987;19.472;-99.276;2022-08-04T11:36:28;4.95;;;4.45;;
13832;SDS011;6987;19.472;-99.276;2022-08-04T11:39:01;9.98;;;5.47;;
13832;SDS011;6987;19.472;-99.276;2022-08-04T11:41:36;12.60;;;4.85;;
13832;SDS011;6987;19.472;-99.276;2022-08-04T11:44:06;9.63;;;5.10;;
13832;SDS011;6987;19.472;-99.276;2022-08-04T11:46:42;4.85;;;4.45;;
13832;SDS011;6987;19.472;-99.276;2022-08-04T11:49:14;9.73;;;5.38;;
13832;SDS011;6987;19.472;-99.276;2022-08-04T11:51:43;5.55;;;5.00;;
13832;SDS011;6987;19.472;-99.276;2022-08-04T11:54:13;6.20;;;4.85;;
13832;SDS011;6987;19.472;-99.276;2022-08-04T11:56:43;4.88;;;4.43;;
13832;SDS011;6987;19.472;-99.276;2022-08-04T11:59:11;8.45;;;5.88;;
13832;SDS011;6987;19.472;-99.276;2022-08-04T12:01:46;7.10;;;5.25;;
13832;SDS011;6987;19.472;-99.276;2022-08-04T12:04:23;6.40;;;5.80;;
13832;SDS011;6987;19.472;-99.276;2022-08-04T12:06:54;7.57;;;5.05;;
13832;SDS011;6987;19.472;-99.276;2022-08-04T12:09:27;6.20;;;4.82;;
13832;SDS011;6987;19.472;-99.276;2022-08-04T12:11:59;7.40;;;4.88;;
13832;SDS011;6987;19.472;-99.276;2022-08-04T12:14:35;6.75;;;5.07;;
13832;SDS011;6987;19.472;-99.276;2022-08-04T12:17:07;5.80;;;5.28;;
13832;SDS011;6987;19.472;-99.276;2022-08-04T12:19:38;6.10;;;5.45;;
13832;SDS011;6987;19.472;-99.276;2022-08-04T12:22:09;16.15;;;5.32;;
13832;SDS011;6987;19.472;-99.276;2022-08-04T12:24:40;6.30;;;5.30;;
13832;SDS011;6987;19.472;-99.276;2022-08-04T12:27:12;8.88;;;5.55;;
13832;SDS011;6987;19.472;-99.276;2022-08-04T12:29:41;12.23;;;5.75;;
13832;SDS011;6987;19.472;-99.276;2022-08-04T12:32:22;8.02;;;5.50;;
13832;SDS011;6987;19.472;-99.276;2022-08-04T12:34:58;17.35;;;6.53;;
13832;SDS011;6987;19.472;-99.276;2022-08-04T12:37:33;15.55;;;6.90;;
13832;SDS011;6987;19.472;-99.276;2022-08-04T12:40:05;9.95;;;4.93;;
13832;SDS011;6987;19.472;-99.276;2022-08-04T12:42:39;9.05;;;5.20;;
13832;SDS011;6987;19.472;-99.276;2022-08-04T12:45:09;6.63;;;5.20;;
13832;SDS011;6987;19.472;-99.276;2022-08-04T12:47:40;8.02;;;5.43;;
13832;SDS011;6987;19.472;-99.276;2022-08-04T12:50:09;9.98;;;5.50;;
13832;SDS011;6987;19.472;-99.276;2022-08-04T12:52:42;5.22;;;4.45;;
13832;SDS011;6987;19.472;-99.276;2022-08-04T12:55:11;9.35;;;5.50;;
13832;SDS011;6987;19.472;-99.276;2022-08-04T12:57:40;7.43;;;5.70;;
13832;SDS011;6987;19.472;-99.276;2022-08-04T13:00:11;17.27;;;5.88;;
13832;SDS011;6987;19.472;-99.276;2022-08-04T13:02:51;14.18;;;6.50;;
13832;SDS011;6987;19.472;-99.276;2022-08-04T13:05:22;11.88;;;6.53;;
13832;SDS011;6987;19.472;-99.276;2022-08-04T13:07:53;8.55;;;5.72;;
13832;SDS011;6987;19.472;-99.276;2022-08-04T13:10:24;6.75;;;5.50;;
13832;SDS011;6987;19.472;-99.276;2022-08-04T13:12:54;8.43;;;6.60;;
13832;SDS011;6987;19.472;-99.276;2022-08-04T13:15:24;9.00;;;5.63;;
13832;SDS011;6987;19.472;-99.276;2022-08-04T13:17:57;8.05;;;5.50;;
13832;SDS011;6987;19.472;-99.276;2022-08-04T13:20:27;7.78;;;6.03;;
13832;SDS011;6987;19.472;-99.276;2022-08-04T13:22:58;9.00;;;6.35;;
13832;SDS011;6987;19.472;-99.276;2022-08-04T13:25:28;6.22;;;5.45;;
13832;SDS011;6987;19.472;-99.276;2022-08-04T13:27:57;8.38;;;6.22;;
13832;SDS011;6987;19.472;-99.276;2022-08-04T13:30:26;7.22;;;6.47;;
13832;SDS011;6987;19.472;-99.276;2022-08-04T13:32:59;9.82;;;6.40;;
13832;SDS011;6987;19.472;-99.276;2022-08-04T13:35:28;11.07;;;6.82;;
13832;SDS011;6987;19.472;-99.276;2022-08-04T13:37:59;8.52;;;6.35;;
13832;SDS011;6987;19.472;-99.276;2022-08-04T13:40:28;10.27;;;7.50;;
13832;SDS011;6987;19.472;-99.276;2022-08-04T13:42:57;10.45;;;6.63;;
13832;SDS011;6987;19.472;-99.276;2022-08-04T13:45:27;11.60;;;7.25;;
13832;SDS011;6987;19.472;-99.276;2022-08-04T13:47:58;9.15;;;7.93;;
13832;SDS011;6987;19.472;-99.276;2022-08-04T13:50:28;17.75;;;8.38;;
13832;SDS011;6987;19.472;-99.276;2022-08-04T13:52:59;14.85;;;8.80;;
13832;SDS011;6987;19.472;-99.276;2022-08-04T13:55:28;11.55;;;8.95;;
13832;SDS011;6987;19.472;-99.276;2022-08-04T13:57:59;12.88;;;8.60;;
13832;SDS011;6987;19.472;-99.276;2022-08-04T14:00:40;9.02;;;7.88;;
13832;SDS011;6987;19.472;-99.276;2022-08-04T14:03:12;9.82;;;8.15;;
13832;SDS011;6987;19.472;-99.276;2022-08-04T14:05:42;13.55;;;8.60;;
13832;SDS011;6987;19.472;-99.276;2022-08-04T14:08:16;9.02;;;7.72;;
13832;SDS011;6987;19.472;-99.276;2022-08-04T14:10:52;8.45;;;7.07;;
13832;SDS011;6987;19.472;-99.276;2022-08-04T14:13:27;8.73;;;7.80;;
13832;SDS011;6987;19.472;-99.276;2022-08-04T14:15:57;10.05;;;7.38;;
13832;SDS011;6987;19.472;-99.276;2022-08-04T14:18:28;14.70;;;8.88;;
13832;SDS011;6987;19.472;-99.276;2022-08-04T14:21:00;12.77;;;9.00;;
13832;SDS011;6987;19.472;-99.276;2022-08-04T14:23:36;10.63;;;7.47;;
13832;SDS011;6987;19.472;-99.276;2022-08-04T14:26:18;11.73;;;8.32;;
13832;SDS011;6987;19.472;-99.276;2022-08-04T14:28:49;13.77;;;8.77;;
13832;SDS011;6987;19.472;-99.276;2022-08-04T14:31:21;11.93;;;8.63;;
13832;SDS011;6987;19.472;-99.276;2022-08-04T14:33:52;15.25;;;9.20;;
13832;SDS011;6987;19.472;-99.276;2022-08-04T14:36:21;13.50;;;9.85;;
13832;SDS011;6987;19.472;-99.276;2022-08-04T14:38:51;11.85;;;9.50;;
13832;SDS011;6987;19.472;-99.276;2022-08-04T14:41:22;14.80;;;10.05;;
13832;SDS011;6987;19.472;-99.276;2022-08-04T14:43:52;14.45;;;10.02;;
13832;SDS011;6987;19.472;-99.276;2022-08-04T14:46:22;20.77;;;10.80;;
13832;SDS011;6987;19.472;-99.276;2022-08-04T14:49:02;15.20;;;10.63;;
13832;SDS011;6987;19.472;-99.276;2022-08-04T14:51:36;18.25;;;10.98;;
13832;SDS011;6987;19.472;-99.276;2022-08-04T14:54:06;14.20;;;9.63;;
13832;SDS011;6987;19.472;-99.276;2022-08-04T14:56:35;17.40;;;10.25;;
13832;SDS011;6987;19.472;-99.276;2022-08-04T14:59:04;14.02;;;10.50;;
13832;SDS011;6987;19.472;-99.276;2022-08-04T15:01:34;13.05;;;8.93;;
13832;SDS011;6987;19.472;-99.276;2022-08-04T15:04:05;13.35;;;11.60;;
13832;SDS011;6987;19.472;-99.276;2022-08-04T15:06:35;12.68;;;10.02;;
13832;SDS011;6987;19.472;-99.276;2022-08-04T15:09:05;23.08;;;13.13;;
13832;SDS011;6987;19.472;-99.276;2022-08-04T15:11:34;14.50;;;10.88;;
13832;SDS011;6987;19.472;-99.276;2022-08-04T15:14:03;13.45;;;11.80;;
13832;SDS011;6987;19.472;-99.276;2022-08-04T15:16:33;20.00;;;11.00;;
13832;SDS011;6987;19.472;-99.276;2022-08-04T15:19:02;17.10;;;11.18;;
13832;SDS011;6987;19.472;-99.276;2022-08-04T15:21:33;13.60;;;10.95;;
13832;SDS011;6987;19.472;-99.276;2022-08-04T15:24:04;14.65;;;11.60;;
13832;SDS011;6987;19.472;-99.276;2022-08-04T15:26:34;17.05;;;10.02;;
13832;SDS011;6987;19.472;-99.276;2022-08-04T15:29:08;10.70;;;9.25;;
13832;SDS011;6987;19.472;-99.276;2022-08-04T15:31:41;12.82;;;9.82;;
13832;SDS011;6987;19.472;-99.276;2022-08-04T15:34:11;12.55;;;9.82;;
13832;SDS011;6987;19.472;-99.276;2022-08-04T15:36:51;18.27;;;10.52;;
13832;SDS011;6987;19.472;-99.276;2022-08-04T15:39:33;14.15;;;11.30;;
13832;SDS011;6987;19.472;-99.276;2022-08-04T15:42:10;16.58;;;11.73;;
13832;SDS011;6987;19.472;-99.276;2022-08-04T15:47:28;25.90;;;17.50;;
13832;SDS011;6987;19.472;-99.276;2022-08-04T15:50:04;20.63;;;15.93;;
13832;SDS011;6987;19.472;-99.276;2022-08-04T15:55:31;21.70;;;15.90;;